Terminal Aerodrome Forecast
Issued by NWS

Home | Current Version | Previous Version | Text Only | Print | Product List | Glossary Off
Versions: 1 2 3 4 5 6 7 8 9 10 11 12 13 14 15 16 17 18 19 20 21

000
FTUS43 KABR 221725
TAFMBG
TAF
KMBG 221725Z 2218/2318 02009KT P6SM BKN070 OVC090
     FM222200 35017G25KT P6SM VCSH BKN090
     FM230000 35015G23KT P6SM VCSH BKN080
     FM230200 35012KT P6SM BKN080
     FM230300 35008KT P6SM BKN080
     FM231500 35014G22KT P6SM BKN040=

USA.gov is the U.S. government's official web portal to all federal, state and local government web resources and services.